Terminal Aerodrome Forecast
Issued by NWS Sterling, VA

Current Version | Previous Version | Graphics & Text | Print | Product List | Glossary On
Versions: 1 2 3 4 5 6 7 8 9 10 11 12 13 14 15 16 17 18 19 20 21 22 23 24 25 26 27 28 29 30
000
FTUS41 KLWX 080800 AAA
TAFIAD
TAF AMD
KIAD 080848Z 0809/0912 22006KT P6SM BKN130
     FM081500 23010KT P6SM SCT070
     FM081700 22012KT P6SM BKN050
     FM081900 22014KT P6SM VCTS BKN050CB
     FM090300 23009KT P6SM BKN060
     FM090700 25005KT P6SM BKN070=

USA.gov is the U.S. government's official web portal to all federal, state and local government web resources and services.